Terminal Aerodrome Forecast
Issued by NWS Medford, OR

Home | Current Version | Previous Version | Text Only | Print | Product List | Glossary On
Versions: 1 2 3 4 5 6 7 8 9 10 11 12 13 14 15
000
FTUS46 KMFR 031129
TAFMFR
TAF
KMFR 031129Z 0312/0412 33003KT P6SM SCT025 BKN060
     FM032000 31007KT P6SM SCT050 SCT080
     FM032300 32010G16KT P6SM BKN060
     FM040400 33006KT P6SM SCT030 BKN050=

USA.gov is the U.S. government's official web portal to all federal, state and local government web resources and services.